sim
Sign-in with your pilot id or email,
or register
Callsign
Passwort

Schedule Details

Flight Number: RYR8182 (3)
Departure: London Stansted Airport (EGSS) at 06:10
Arrival: Fuerteventura Airport (GCFV) at 10:20
Route: Ryanair Passenger Schedule. Enter filed route here before submitting Pirep.

Weather Information
Getting current METAR information for EGSS 172220Z AUTO 22008KT 9999 FEW042 OVC049 16/13 Q1005
Getting current METAR information for GCFV 172200Z 03007KT CAVOK 24/20 Q1013

Schedule Frequency

Route Map